createdAt,value
2022-11-19T00:00:12.240Z,8.43
2022-11-19T00:03:21.693Z,9.65
2022-11-19T00:06:28.154Z,10.15
2022-11-19T00:09:31.457Z,8.55
2022-11-19T00:12:53.146Z,9.43
2022-11-19T00:15:57.802Z,6.63
2022-11-19T00:19:02.397Z,7.15
2022-11-19T00:22:07.093Z,6.32
2022-11-19T00:25:11.778Z,7.95
2022-11-19T00:28:15.645Z,16.30
2022-11-19T00:31:19.609Z,8.35
2022-11-19T00:34:23.630Z,7.47
2022-11-19T00:37:26.938Z,5.00
2022-11-19T00:40:30.931Z,6.75
2022-11-19T00:43:52.903Z,9.25
2022-11-19T00:46:56.949Z,15.35
2022-11-19T00:50:00.669Z,7.78
2022-11-19T00:53:04.462Z,10.60
2022-11-19T00:56:13.707Z,15.82
2022-11-19T00:59:17.211Z,8.23
2022-11-19T01:02:20.451Z,6.93
2022-11-19T01:05:24.038Z,6.93
2022-11-19T01:08:28.016Z,4.82
2022-11-19T01:11:34.964Z,7.90
2022-11-19T01:14:38.371Z,6.32
2022-11-19T01:17:41.431Z,7.25
2022-11-19T01:20:46.207Z,18.05
2022-11-19T01:23:50.632Z,8.30
2022-11-19T01:26:54.104Z,8.35
2022-11-19T01:29:57.723Z,6.85
2022-11-19T01:33:01.920Z,8.90
2022-11-19T01:36:09.455Z,7.30
2022-11-19T01:39:13.126Z,7.18
2022-11-19T01:42:50.831Z,8.77
2022-11-19T01:45:55.418Z,16.15
2022-11-19T01:49:19.214Z,6.53
2022-11-19T01:52:23.976Z,4.88
2022-11-19T01:55:28.809Z,7.05
2022-11-19T01:58:36.895Z,5.13
2022-11-19T02:01:40.778Z,6.63
2022-11-19T02:04:45.042Z,10.00
2022-11-19T02:07:58.313Z,2.10
2022-11-19T02:11:27.289Z,8.82
2022-11-19T02:15:01.026Z,4.18
2022-11-19T02:18:20.962Z,8.43
2022-11-19T02:21:43.345Z,4.55
2022-11-19T02:25:03.024Z,8.70
2022-11-19T02:28:43.672Z,4.35
2022-11-19T02:32:05.007Z,5.25
2022-11-19T02:35:15.005Z,10.80
2022-11-19T02:38:51.083Z,8.75
2022-11-19T02:42:05.935Z,8.18
2022-11-19T02:45:14.660Z,5.97
2022-11-19T02:48:24.381Z,4.70
2022-11-19T02:51:28.530Z,5.28
2022-11-19T02:54:31.926Z,5.82
2022-11-19T02:57:37.360Z,4.38
2022-11-19T03:01:06.793Z,6.95
2022-11-19T03:04:29.555Z,3.70
2022-11-19T03:07:32.513Z,9.93
2022-11-19T03:10:56.112Z,7.07
2022-11-19T03:14:26.594Z,5.75
2022-11-19T03:17:30.518Z,4.55
2022-11-19T03:20:45.581Z,4.47
2022-11-19T03:23:58.952Z,5.75
2022-11-19T03:27:12.128Z,6.60
2022-11-19T03:30:18.544Z,5.30
2022-11-19T03:33:48.233Z,5.82
2022-11-19T03:36:57.206Z,7.18
2022-11-19T03:40:03.782Z,3.58
2022-11-19T03:43:10.496Z,2.50
2022-11-19T03:46:19.522Z,10.65
2022-11-19T03:49:32.127Z,5.57
2022-11-19T03:52:36.477Z,5.10
2022-11-19T03:55:47.750Z,3.95
2022-11-19T03:58:54.047Z,9.27
2022-11-19T04:02:02.635Z,5.63
2022-11-19T04:05:06.586Z,8.70
2022-11-19T04:08:10.464Z,4.90
2022-11-19T04:14:20.574Z,7.55
2022-11-19T04:17:23.820Z,10.15
2022-11-19T04:20:28.026Z,3.85
2022-11-19T04:23:31.746Z,10.25
2022-11-19T04:26:35.837Z,6.85
2022-11-19T04:29:39.209Z,4.43
2022-11-19T04:32:44.055Z,4.60
2022-11-19T04:35:47.791Z,5.97
2022-11-19T04:38:51.515Z,5.10
2022-11-19T04:41:55.315Z,3.17
2022-11-19T04:44:59.486Z,5.10
2022-11-19T04:48:03.278Z,2.85
2022-11-19T04:51:07.309Z,1.67
2022-11-19T04:54:11.132Z,5.82
2022-11-19T04:57:14.919Z,1.63
2022-11-19T05:00:18.992Z,1.05
2022-11-19T05:03:22.991Z,4.13
2022-11-19T05:06:26.714Z,4.60
2022-11-19T05:09:30.749Z,5.05
2022-11-19T05:12:34.105Z,5.55
2022-11-19T05:15:38.214Z,4.43
2022-11-19T05:18:41.513Z,5.32
2022-11-19T05:21:45.551Z,6.40
2022-11-19T05:24:48.979Z,8.55
2022-11-19T05:27:53.135Z,4.43
2022-11-19T05:30:56.634Z,2.92
2022-11-19T05:34:00.652Z,3.08
2022-11-19T05:37:04.249Z,4.07
2022-11-19T05:40:08.686Z,4.28
2022-11-19T05:43:12.523Z,4.18
2022-11-19T05:46:16.078Z,3.58
2022-11-19T05:49:20.034Z,1.25
2022-11-19T05:52:23.799Z,4.03
2022-11-19T05:55:27.471Z,5.88
2022-11-19T05:58:31.418Z,2.45
2022-11-19T06:01:35.186Z,3.13
2022-11-19T06:04:39.320Z,3.97
2022-11-19T06:07:42.977Z,9.30
2022-11-19T06:10:47.077Z,6.43
2022-11-19T06:13:50.889Z,4.25
2022-11-19T06:16:57.131Z,3.85
2022-11-19T06:20:00.936Z,2.58
2022-11-19T06:23:04.956Z,3.35
2022-11-19T06:26:09.623Z,4.50
2022-11-19T06:29:18.771Z,3.38
2022-11-19T06:32:22.799Z,5.82
2022-11-19T06:35:25.804Z,4.70
2022-11-19T06:38:28.725Z,2.65
2022-11-19T06:41:32.852Z,2.75
2022-11-19T06:44:35.884Z,2.40
2022-11-19T06:47:40.322Z,1.75
2022-11-19T06:50:46.250Z,2.30
2022-11-19T06:53:50.233Z,3.10
2022-11-19T06:56:53.433Z,5.95
2022-11-19T06:59:57.758Z,3.25
2022-11-19T07:03:01.148Z,3.63
2022-11-19T07:06:06.221Z,3.35
2022-11-19T07:09:10.084Z,6.72
2022-11-19T07:12:13.687Z,7.50
2022-11-19T07:15:17.439Z,4.85
2022-11-19T07:18:21.214Z,4.55
2022-11-19T07:21:24.789Z,4.78
2022-11-19T07:24:28.699Z,4.72
2022-11-19T07:27:31.946Z,5.70
2022-11-19T07:30:36.140Z,9.45
2022-11-19T07:33:40.036Z,6.10
2022-11-19T07:36:44.089Z,6.70
2022-11-19T07:39:47.847Z,6.20
2022-11-19T07:42:54.143Z,6.18
2022-11-19T07:45:57.746Z,5.53
2022-11-19T07:49:01.882Z,3.88
2022-11-19T07:52:05.761Z,4.70
2022-11-19T07:55:09.859Z,5.60
2022-11-19T07:58:13.918Z,6.28
2022-11-19T08:01:20.891Z,2.88
2022-11-19T08:04:23.884Z,5.22
2022-11-19T08:07:27.795Z,6.20
2022-11-19T08:10:31.857Z,3.38
2022-11-19T08:13:36.472Z,4.00
2022-11-19T08:16:58.197Z,5.07
2022-11-19T08:20:02.165Z,7.20
2022-11-19T08:23:05.580Z,6.78
2022-11-19T08:26:10.011Z,5.32
2022-11-19T08:29:16.721Z,9.15
2022-11-19T08:32:21.055Z,8.65
2022-11-19T08:35:24.662Z,9.27
2022-11-19T08:38:28.641Z,9.13
2022-11-19T08:45:09.032Z,10.97
2022-11-19T08:48:14.080Z,19.73
2022-11-19T08:51:17.171Z,10.38
2022-11-19T08:54:20.491Z,9.40
2022-11-19T08:57:24.778Z,11.23
2022-11-19T09:00:27.987Z,11.88
2022-11-19T09:03:31.648Z,10.75
2022-11-19T09:06:35.499Z,4.70
2022-11-19T09:09:39.145Z,6.75
2022-11-19T09:12:42.828Z,4.68
2022-11-19T09:15:49.947Z,7.90
2022-11-19T09:18:53.833Z,7.30
2022-11-19T09:21:57.909Z,16.40
2022-11-19T09:25:01.524Z,18.48
2022-11-19T09:28:05.564Z,15.68
2022-11-19T09:31:16.581Z,16.92
2022-11-19T09:34:19.791Z,25.10
2022-11-19T09:37:22.988Z,25.33
2022-11-19T09:40:26.935Z,20.25
2022-11-19T09:43:51.129Z,17.63
2022-11-19T09:47:22.313Z,24.55
2022-11-19T09:50:29.130Z,19.15
2022-11-19T09:54:04.372Z,11.00
2022-11-19T09:57:14.918Z,12.60
2022-11-19T10:00:22.881Z,15.93
2022-11-19T10:03:33.154Z,14.90
2022-11-19T10:06:51.874Z,32.67
2022-11-19T10:10:23.154Z,24.13
2022-11-19T10:13:54.509Z,29.23
2022-11-19T10:17:16.512Z,19.17
2022-11-19T10:20:45.062Z,13.98
2022-11-19T10:24:11.499Z,47.88
2022-11-19T10:27:25.717Z,25.17
2022-11-19T10:30:32.136Z,54.80
2022-11-19T10:33:49.429Z,37.30
2022-11-19T10:37:13.379Z,54.30
2022-11-19T10:40:21.598Z,45.60
2022-11-19T10:43:28.295Z,50.63
2022-11-19T10:46:31.601Z,44.28
2022-11-19T10:49:42.270Z,51.22
2022-11-19T10:52:57.515Z,41.70
2022-11-19T10:56:40.524Z,38.13
2022-11-19T10:59:45.366Z,17.23
2022-11-19T11:02:56.830Z,8.65
2022-11-19T11:06:07.187Z,6.97
2022-11-19T11:09:14.879Z,7.40
2022-11-19T11:15:49.322Z,8.70
2022-11-19T11:18:54.685Z,6.05
2022-11-19T11:21:59.228Z,10.23
2022-11-19T11:25:06.985Z,8.98
2022-11-19T11:28:17.095Z,10.88
2022-11-19T11:31:31.339Z,10.02
2022-11-19T11:34:41.211Z,9.18
2022-11-19T11:37:47.615Z,7.72
2022-11-19T11:42:02.023Z,10.82
2022-11-19T11:44:35.499Z,6.03
2022-11-19T11:47:43.201Z,10.85
2022-11-19T11:50:47.143Z,5.75
2022-11-19T11:54:05.940Z,7.55
2022-11-19T11:57:28.961Z,9.07
2022-11-19T12:00:42.839Z,14.60
2022-11-19T12:04:00.224Z,12.07
2022-11-19T12:10:35.448Z,29.60
2022-11-19T12:13:53.355Z,8.35
2022-11-19T12:17:19.311Z,20.48
2022-11-19T12:20:48.094Z,15.18
2022-11-19T12:24:13.126Z,6.97
2022-11-19T12:27:54.120Z,17.65
2022-11-19T12:31:20.741Z,25.42
2022-11-19T12:34:45.047Z,29.17
2022-11-19T12:38:25.019Z,25.08
2022-11-19T12:41:46.975Z,37.97
2022-11-19T12:45:11.751Z,13.90
2022-11-19T12:48:27.217Z,18.20
2022-11-19T12:51:37.039Z,12.10
2022-11-19T12:55:09.180Z,19.00
2022-11-19T12:58:18.623Z,14.57
2022-11-19T13:01:26.891Z,17.38
2022-11-19T13:07:47.017Z,15.07
2022-11-19T13:10:57.954Z,17.45
2022-11-19T13:14:19.146Z,14.73
2022-11-19T13:17:45.508Z,17.00
2022-11-19T13:21:24.607Z,8.98
2022-11-19T13:24:43.563Z,11.50
2022-11-19T13:27:49.735Z,13.65
2022-11-19T13:30:57.736Z,20.45
2022-11-19T13:34:19.487Z,17.58
2022-11-19T13:37:47.315Z,17.35
2022-11-19T13:41:06.874Z,16.63
2022-11-19T13:44:30.500Z,18.08
2022-11-19T13:47:56.843Z,13.38
2022-11-19T13:54:09.622Z,17.17
2022-11-19T13:57:46.164Z,22.85
2022-11-19T14:01:08.098Z,17.70
2022-11-19T14:04:43.298Z,23.38
2022-11-19T14:08:08.479Z,28.25
2022-11-19T14:11:32.865Z,22.20
2022-11-19T14:15:11.824Z,23.33
2022-11-19T14:18:54.952Z,19.30
2022-11-19T14:22:18.877Z,27.90
2022-11-19T14:26:10.410Z,19.15
2022-11-19T14:29:19.694Z,16.08
2022-11-19T14:32:46.697Z,15.95
2022-11-19T14:35:52.075Z,11.07
2022-11-19T14:38:59.884Z,10.43
2022-11-19T14:42:29.280Z,7.10
2022-11-19T14:45:32.211Z,7.70
2022-11-19T14:48:41.902Z,9.52
2022-11-19T14:51:53.624Z,7.20
2022-11-19T14:55:00.296Z,10.50
2022-11-19T14:58:07.773Z,5.77
2022-11-19T15:01:20.699Z,10.75
2022-11-19T15:04:31.352Z,3.97
2022-11-19T15:07:39.496Z,3.83
2022-11-19T15:14:38.397Z,20.08
2022-11-19T15:17:45.038Z,15.95
2022-11-19T15:21:08.639Z,15.07
2022-11-19T15:24:53.656Z,15.48
2022-11-19T15:28:02.682Z,18.48
2022-11-19T15:31:12.504Z,25.63
2022-11-19T15:34:56.268Z,22.92
2022-11-19T15:38:23.446Z,16.63
2022-11-19T15:41:30.970Z,23.33
2022-11-19T15:44:58.479Z,10.95
2022-11-19T15:48:21.370Z,20.83
2022-11-19T15:51:24.588Z,23.65
2022-11-19T15:54:31.488Z,20.23
2022-11-19T15:57:40.405Z,18.17
2022-11-19T16:00:50.497Z,19.90
2022-11-19T16:03:55.293Z,15.23
2022-11-19T16:06:59.431Z,12.23
2022-11-19T16:10:04.443Z,14.30
2022-11-19T16:13:49.080Z,9.05
2022-11-19T16:17:18.649Z,15.05
2022-11-19T16:20:22.957Z,19.73
2022-11-19T16:23:27.868Z,16.30
2022-11-19T16:26:36.377Z,16.08
2022-11-19T16:29:44.795Z,14.50
2022-11-19T16:32:50.953Z,18.38
2022-11-19T16:36:18.898Z,16.92
2022-11-19T16:39:33.295Z,13.27
2022-11-19T16:42:38.240Z,7.57
2022-11-19T16:45:46.239Z,9.70
2022-11-19T16:48:49.872Z,9.13
2022-11-19T16:51:54.647Z,11.50
2022-11-19T16:54:58.569Z,15.55
2022-11-19T16:58:13.454Z,11.30
2022-11-19T17:01:20.372Z,10.02
2022-11-19T17:04:27.705Z,3.85
2022-11-19T17:07:31.659Z,6.78
2022-11-19T17:10:36.038Z,5.95
2022-11-19T17:13:40.779Z,5.28
2022-11-19T17:16:50.247Z,2.35
2022-11-19T17:19:54.025Z,1.20
2022-11-19T17:23:02.000Z,3.97
2022-11-19T17:26:08.523Z,2.83
2022-11-19T17:29:20.241Z,12.30
2022-11-19T17:32:24.240Z,2.17
2022-11-19T17:35:45.862Z,5.03
2022-11-19T17:38:49.955Z,1.83
2022-11-19T17:42:15.848Z,1.63
2022-11-19T17:45:19.067Z,1.13
2022-11-19T17:48:25.427Z,2.25
2022-11-19T17:51:28.896Z,2.85
2022-11-19T17:54:33.196Z,11.70
2022-11-19T17:57:41.236Z,11.82
2022-11-19T18:00:46.719Z,14.43
2022-11-19T18:03:50.376Z,8.13
2022-11-19T18:06:53.854Z,16.92
2022-11-19T18:09:57.137Z,10.55
2022-11-19T18:13:01.266Z,10.43
2022-11-19T18:16:15.904Z,6.22
2022-11-19T18:19:29.368Z,9.13
2022-11-19T18:22:33.264Z,7.43
2022-11-19T18:25:36.626Z,7.30
2022-11-19T18:28:44.903Z,9.63
2022-11-19T18:31:52.127Z,2.97
2022-11-19T18:34:59.229Z,7.28
2022-11-19T18:38:05.871Z,9.30
2022-11-19T18:41:14.255Z,10.73
2022-11-19T18:44:36.760Z,9.18
2022-11-19T18:47:40.555Z,3.58
2022-11-19T18:50:44.706Z,7.38
2022-11-19T18:53:49.263Z,7.15
2022-11-19T18:56:53.090Z,6.60
2022-11-19T18:59:57.002Z,5.60
2022-11-19T19:03:01.279Z,8.50
2022-11-19T19:06:06.168Z,6.40
2022-11-19T19:09:11.662Z,6.35
2022-11-19T19:12:18.196Z,8.23
2022-11-19T19:15:21.352Z,8.85
2022-11-19T19:18:24.950Z,5.22
2022-11-19T19:21:29.680Z,8.43
2022-11-19T19:24:33.596Z,9.27
2022-11-19T19:27:37.053Z,12.02
2022-11-19T19:30:40.020Z,3.97
2022-11-19T19:33:45.911Z,8.48
2022-11-19T19:36:53.234Z,5.20
2022-11-19T19:43:03.817Z,7.63
2022-11-19T19:46:10.640Z,5.97
2022-11-19T19:49:14.476Z,8.50
2022-11-19T19:52:18.482Z,8.15
2022-11-19T19:55:21.955Z,4.43
2022-11-19T19:58:28.085Z,6.15
2022-11-19T20:01:34.288Z,4.80
2022-11-19T20:04:38.327Z,5.32
2022-11-19T20:07:41.770Z,4.82
2022-11-19T20:10:45.427Z,2.63
2022-11-19T20:13:48.915Z,8.75
2022-11-19T20:16:52.723Z,4.13
2022-11-19T20:19:56.441Z,5.78
2022-11-19T20:23:00.299Z,4.40
2022-11-19T20:26:08.538Z,6.90
2022-11-19T20:29:14.833Z,4.60
2022-11-19T20:32:18.565Z,10.05
2022-11-19T20:35:22.375Z,7.45
2022-11-19T20:38:26.376Z,8.18
2022-11-19T20:41:48.525Z,7.85
2022-11-19T20:44:52.128Z,4.03
2022-11-19T20:47:55.892Z,7.75
2022-11-19T20:50:59.789Z,5.68
2022-11-19T20:54:05.244Z,8.40
2022-11-19T20:57:08.658Z,12.27
2022-11-19T21:00:13.093Z,7.72
2022-11-19T21:03:17.178Z,24.73
2022-11-19T21:06:20.365Z,9.25
2022-11-19T21:09:24.210Z,8.98
2022-11-19T21:12:28.488Z,5.90
2022-11-19T21:15:36.798Z,5.85
2022-11-19T21:18:40.283Z,13.27
2022-11-19T21:21:45.953Z,22.05
2022-11-19T21:24:49.816Z,9.77
2022-11-19T21:27:54.871Z,9.32
2022-11-19T21:30:58.632Z,6.97
2022-11-19T21:34:02.291Z,6.53
2022-11-19T21:37:05.990Z,8.80
2022-11-19T21:40:09.691Z,10.38
2022-11-19T21:43:13.442Z,10.70
2022-11-19T21:46:17.491Z,25.98
2022-11-19T21:49:21.139Z,6.57
2022-11-19T21:52:24.260Z,12.18
2022-11-19T21:55:27.269Z,12.88
2022-11-19T21:58:32.066Z,13.48
2022-11-19T22:01:35.147Z,14.20
2022-11-19T22:04:39.283Z,10.73
2022-11-19T22:07:43.065Z,13.95
2022-11-19T22:10:49.880Z,10.82
2022-11-19T22:13:53.962Z,10.50
2022-11-19T22:16:58.802Z,10.70
2022-11-19T22:20:02.337Z,8.02
2022-11-19T22:23:06.314Z,13.77
2022-11-19T22:26:11.703Z,11.63
2022-11-19T22:29:14.893Z,13.30
2022-11-19T22:32:18.567Z,8.35
2022-11-19T22:35:22.792Z,15.20
2022-11-19T22:38:26.863Z,14.65
2022-11-19T22:41:31.121Z,9.27
2022-11-19T22:44:34.891Z,8.63
2022-11-19T22:47:37.952Z,10.27
2022-11-19T22:50:42.658Z,13.10
2022-11-19T22:53:46.336Z,9.82
2022-11-19T22:56:50.026Z,10.57
2022-11-19T22:59:53.354Z,10.70
2022-11-19T23:02:56.382Z,13.15
2022-11-19T23:06:02.537Z,7.35
2022-11-19T23:09:06.994Z,9.65
2022-11-19T23:12:29.097Z,15.95
2022-11-19T23:15:32.831Z,4.60
2022-11-19T23:18:42.441Z,10.60
2022-11-19T23:21:46.633Z,20.48
2022-11-19T23:24:50.112Z,21.38
2022-11-19T23:27:53.134Z,20.98
2022-11-19T23:30:57.235Z,19.10
2022-11-19T23:34:01.116Z,23.80
2022-11-19T23:37:04.536Z,19.17
2022-11-19T23:40:08.509Z,20.23
2022-11-19T23:43:12.272Z,19.25
2022-11-19T23:46:18.744Z,16.02
2022-11-19T23:49:22.480Z,26.00
2022-11-19T23:52:26.325Z,15.63
2022-11-19T23:55:29.716Z,9.75
2022-11-19T23:58:33.568Z,12.55
